sensor_id;sensor_type;location;lat;lon;timestamp;temperature;humidity
18047;DHT22;9148;51.454;13.862;2023-07-09T00:01:56;19.50;66.00
18047;DHT22;9148;51.454;13.862;2023-07-09T00:04:22;19.40;66.40
18047;DHT22;9148;51.454;13.862;2023-07-09T00:06:47;19.20;66.70
18047;DHT22;9148;51.454;13.862;2023-07-09T00:09:15;19.20;67.10
18047;DHT22;9148;51.454;13.862;2023-07-09T00:11:43;19.10;67.50
18047;DHT22;9148;51.454;13.862;2023-07-09T00:14:11;19.00;67.90
18047;DHT22;9148;51.454;13.862;2023-07-09T00:16:39;19.00;68.20
18047;DHT22;9148;51.454;13.862;2023-07-09T00:19:15;18.90;68.50
18047;DHT22;9148;51.454;13.862;2023-07-09T00:21:43;18.90;68.80
18047;DHT22;9148;51.454;13.862;2023-07-09T00:24:11;18.80;69.10
18047;DHT22;9148;51.454;13.862;2023-07-09T00:26:40;18.70;69.60
18047;DHT22;9148;51.454;13.862;2023-07-09T00:29:12;18.60;70.00
18047;DHT22;9148;51.454;13.862;2023-07-09T00:31:39;18.50;70.50
18047;DHT22;9148;51.454;13.862;2023-07-09T00:34:08;18.40;71.00
18047;DHT22;9148;51.454;13.862;2023-07-09T00:36:37;18.30;71.20
18047;DHT22;9148;51.454;13.862;2023-07-09T00:39:02;18.30;71.50
18047;DHT22;9148;51.454;13.862;2023-07-09T00:41:35;18.30;72.00
18047;DHT22;9148;51.454;13.862;2023-07-09T00:49:32;18.10;73.70
18047;DHT22;9148;51.454;13.862;2023-07-09T00:52:03;18.00;74.30
18047;DHT22;9148;51.454;13.862;2023-07-09T00:54:38;17.90;74.60
18047;DHT22;9148;51.454;13.862;2023-07-09T00:57:18;17.90;75.10
18047;DHT22;9148;51.454;13.862;2023-07-09T00:59:58;17.90;75.50
18047;DHT22;9148;51.454;13.862;2023-07-09T01:02:26;17.90;75.80
18047;DHT22;9148;51.454;13.862;2023-07-09T01:04:55;17.90;76.00
18047;DHT22;9148;51.454;13.862;2023-07-09T01:07:26;17.80;76.40
18047;DHT22;9148;51.454;13.862;2023-07-09T01:09:53;17.80;76.70
18047;DHT22;9148;51.454;13.862;2023-07-09T01:12:19;17.80;77.20
18047;DHT22;9148;51.454;13.862;2023-07-09T01:14:47;17.80;78.40
18047;DHT22;9148;51.454;13.862;2023-07-09T01:17:22;17.70;78.00
18047;DHT22;9148;51.454;13.862;2023-07-09T01:19:50;17.70;78.60
18047;DHT22;9148;51.454;13.862;2023-07-09T01:22:18;17.60;78.80
18047;DHT22;9148;51.454;13.862;2023-07-09T01:24:52;17.60;79.00
18047;DHT22;9148;51.454;13.862;2023-07-09T01:27:31;17.70;79.30
18047;DHT22;9148;51.454;13.862;2023-07-09T01:29:59;17.60;79.50
18047;DHT22;9148;51.454;13.862;2023-07-09T01:32:26;17.70;79.90
18047;DHT22;9148;51.454;13.862;2023-07-09T01:34:59;17.60;80.10
18047;DHT22;9148;51.454;13.862;2023-07-09T01:37:30;17.60;80.50
18047;DHT22;9148;51.454;13.862;2023-07-09T01:39:57;17.50;80.70
18047;DHT22;9148;51.454;13.862;2023-07-09T01:42:24;17.50;81.00
18047;DHT22;9148;51.454;13.862;2023-07-09T01:44:53;17.50;81.30
18047;DHT22;9148;51.454;13.862;2023-07-09T01:47:19;17.50;81.50
18047;DHT22;9148;51.454;13.862;2023-07-09T01:49:45;17.50;81.80
18047;DHT22;9148;51.454;13.862;2023-07-09T01:52:13;17.50;82.20
18047;DHT22;9148;51.454;13.862;2023-07-09T01:54:41;17.50;82.70
18047;DHT22;9148;51.454;13.862;2023-07-09T01:57:18;17.50;83.10
18047;DHT22;9148;51.454;13.862;2023-07-09T01:59:49;17.40;83.50
18047;DHT22;9148;51.454;13.862;2023-07-09T02:02:16;17.40;83.90
18047;DHT22;9148;51.454;13.862;2023-07-09T02:04:50;17.40;84.30
18047;DHT22;9148;51.454;13.862;2023-07-09T02:07:19;17.30;85.00
18047;DHT22;9148;51.454;13.862;2023-07-09T02:09:52;17.30;85.60
18047;DHT22;9148;51.454;13.862;2023-07-09T02:12:18;17.20;86.40
18047;DHT22;9148;51.454;13.862;2023-07-09T02:14:46;17.10;86.80
18047;DHT22;9148;51.454;13.862;2023-07-09T02:17:15;17.10;87.20
18047;DHT22;9148;51.454;13.862;2023-07-09T02:19:42;17.00;87.50
18047;DHT22;9148;51.454;13.862;2023-07-09T02:22:09;17.00;87.80
18047;DHT22;9148;51.454;13.862;2023-07-09T02:24:36;17.00;88.20
18047;DHT22;9148;51.454;13.862;2023-07-09T02:27:03;16.90;88.40
18047;DHT22;9148;51.454;13.862;2023-07-09T02:29:31;16.90;89.00
18047;DHT22;9148;51.454;13.862;2023-07-09T02:31:58;16.90;89.40
18047;DHT22;9148;51.454;13.862;2023-07-09T02:34:28;16.80;89.90
18047;DHT22;9148;51.454;13.862;2023-07-09T02:36:56;16.70;90.10
18047;DHT22;9148;51.454;13.862;2023-07-09T02:39:23;16.70;90.30
18047;DHT22;9148;51.454;13.862;2023-07-09T02:41:49;16.60;90.60
18047;DHT22;9148;51.454;13.862;2023-07-09T02:44:15;16.60;90.80
18047;DHT22;9148;51.454;13.862;2023-07-09T02:46:42;16.50;91.00
18047;DHT22;9148;51.454;13.862;2023-07-09T02:49:11;16.50;91.20
18047;DHT22;9148;51.454;13.862;2023-07-09T02:51:38;16.40;91.50
18047;DHT22;9148;51.454;13.862;2023-07-09T02:54:03;16.40;91.70
18047;DHT22;9148;51.454;13.862;2023-07-09T02:56:30;16.30;91.90
18047;DHT22;9148;51.454;13.862;2023-07-09T02:58:56;16.30;92.20
18047;DHT22;9148;51.454;13.862;2023-07-09T03:01:21;16.20;92.30
18047;DHT22;9148;51.454;13.862;2023-07-09T03:03:54;16.20;92.50
18047;DHT22;9148;51.454;13.862;2023-07-09T03:06:23;16.20;92.60
18047;DHT22;9148;51.454;13.862;2023-07-09T03:08:50;16.10;92.80
18047;DHT22;9148;51.454;13.862;2023-07-09T03:11:17;16.10;93.00
18047;DHT22;9148;51.454;13.862;2023-07-09T03:13:43;16.10;93.20
18047;DHT22;9148;51.454;13.862;2023-07-09T03:16:12;16.00;93.30
18047;DHT22;9148;51.454;13.862;2023-07-09T03:18:39;16.00;93.50
18047;DHT22;9148;51.454;13.862;2023-07-09T03:21:05;15.90;93.70
18047;DHT22;9148;51.454;13.862;2023-07-09T03:23:31;15.90;93.90
18047;DHT22;9148;51.454;13.862;2023-07-09T03:25:57;15.90;94.10
18047;DHT22;9148;51.454;13.862;2023-07-09T03:28:23;15.90;94.20
18047;DHT22;9148;51.454;13.862;2023-07-09T03:30:49;15.90;94.40
18047;DHT22;9148;51.454;13.862;2023-07-09T03:33:18;15.90;94.50
18047;DHT22;9148;51.454;13.862;2023-07-09T03:35:44;15.90;94.60
18047;DHT22;9148;51.454;13.862;2023-07-09T03:38:10;15.80;94.80
18047;DHT22;9148;51.454;13.862;2023-07-09T03:40:37;15.90;95.00
18047;DHT22;9148;51.454;13.862;2023-07-09T03:43:03;15.90;95.20
18047;DHT22;9148;51.454;13.862;2023-07-09T03:45:34;16.00;95.30
18047;DHT22;9148;51.454;13.862;2023-07-09T03:48:01;16.00;95.30
18047;DHT22;9148;51.454;13.862;2023-07-09T03:50:27;16.00;95.40
18047;DHT22;9148;51.454;13.862;2023-07-09T03:52:53;16.10;95.60
18047;DHT22;9148;51.454;13.862;2023-07-09T03:55:18;16.10;95.60
18047;DHT22;9148;51.454;13.862;2023-07-09T03:57:44;16.20;95.70
18047;DHT22;9148;51.454;13.862;2023-07-09T04:00:11;16.30;95.90
18047;DHT22;9148;51.454;13.862;2023-07-09T04:02:38;16.30;95.70
18047;DHT22;9148;51.454;13.862;2023-07-09T04:05:05;16.40;95.70
18047;DHT22;9148;51.454;13.862;2023-07-09T04:07:34;16.50;95.70
18047;DHT22;9148;51.454;13.862;2023-07-09T04:10:00;16.60;95.80
18047;DHT22;9148;51.454;13.862;2023-07-09T04:12:26;16.70;95.80
18047;DHT22;9148;51.454;13.862;2023-07-09T04:14:51;16.80;95.80
18047;DHT22;9148;51.454;13.862;2023-07-09T04:17:17;16.90;95.80
18047;DHT22;9148;51.454;13.862;2023-07-09T04:19:43;17.00;95.80
18047;DHT22;9148;51.454;13.862;2023-07-09T04:22:10;17.10;95.80
18047;DHT22;9148;51.454;13.862;2023-07-09T04:24:36;17.20;95.80
18047;DHT22;9148;51.454;13.862;2023-07-09T04:27:02;17.30;95.70
18047;DHT22;9148;51.454;13.862;2023-07-09T04:29:32;17.40;95.60
18047;DHT22;9148;51.454;13.862;2023-07-09T04:32:05;17.50;95.50
18047;DHT22;9148;51.454;13.862;2023-07-09T04:34:32;17.60;95.40
18047;DHT22;9148;51.454;13.862;2023-07-09T04:36:58;17.80;95.30
18047;DHT22;9148;51.454;13.862;2023-07-09T04:39:23;18.00;95.10
18047;DHT22;9148;51.454;13.862;2023-07-09T04:41:49;18.10;94.90
18047;DHT22;9148;51.454;13.862;2023-07-09T04:44:15;18.30;94.70
18047;DHT22;9148;51.454;13.862;2023-07-09T04:46:40;18.50;94.50
18047;DHT22;9148;51.454;13.862;2023-07-09T04:49:06;18.60;94.30
18047;DHT22;9148;51.454;13.862;2023-07-09T04:51:32;18.80;94.00
18047;DHT22;9148;51.454;13.862;2023-07-09T04:53:58;18.90;93.80
18047;DHT22;9148;51.454;13.862;2023-07-09T04:56:29;19.10;93.50
18047;DHT22;9148;51.454;13.862;2023-07-09T04:58:55;19.30;93.30
18047;DHT22;9148;51.454;13.862;2023-07-09T05:01:21;19.40;93.00
18047;DHT22;9148;51.454;13.862;2023-07-09T05:03:47;19.60;92.50
18047;DHT22;9148;51.454;13.862;2023-07-09T05:06:13;19.70;92.40
18047;DHT22;9148;51.454;13.862;2023-07-09T05:08:39;19.80;92.20
18047;DHT22;9148;51.454;13.862;2023-07-09T05:11:04;19.90;92.00
18047;DHT22;9148;51.454;13.862;2023-07-09T05:13:30;20.00;91.70
18047;DHT22;9148;51.454;13.862;2023-07-09T05:15:56;20.10;91.60
18047;DHT22;9148;51.454;13.862;2023-07-09T05:18:21;20.30;91.40
18047;DHT22;9148;51.454;13.862;2023-07-09T05:20:47;20.30;91.20
18047;DHT22;9148;51.454;13.862;2023-07-09T05:23:13;20.40;91.00
18047;DHT22;9148;51.454;13.862;2023-07-09T05:25:39;20.30;90.70
18047;DHT22;9148;51.454;13.862;2023-07-09T05:28:05;20.50;90.70
18047;DHT22;9148;51.454;13.862;2023-07-09T05:30:31;20.60;90.90
18047;DHT22;9148;51.454;13.862;2023-07-09T05:32:57;20.70;90.40
18047;DHT22;9148;51.454;13.862;2023-07-09T05:35:25;20.80;90.20
18047;DHT22;9148;51.454;13.862;2023-07-09T05:37:52;21.00;90.00
18047;DHT22;9148;51.454;13.862;2023-07-09T05:40:19;21.10;89.60
18047;DHT22;9148;51.454;13.862;2023-07-09T05:42:44;21.30;88.70
18047;DHT22;9148;51.454;13.862;2023-07-09T05:45:10;21.40;87.30
18047;DHT22;9148;51.454;13.862;2023-07-09T05:47:36;21.60;86.70
18047;DHT22;9148;51.454;13.862;2023-07-09T05:50:03;21.80;85.90
18047;DHT22;9148;51.454;13.862;2023-07-09T05:52:29;22.00;85.00
18047;DHT22;9148;51.454;13.862;2023-07-09T05:54:55;22.20;84.00
18047;DHT22;9148;51.454;13.862;2023-07-09T05:57:21;22.40;83.40
18047;DHT22;9148;51.454;13.862;2023-07-09T05:59:47;22.60;82.50
18047;DHT22;9148;51.454;13.862;2023-07-09T06:02:15;22.80;81.60
18047;DHT22;9148;51.454;13.862;2023-07-09T06:04:42;23.00;81.20
18047;DHT22;9148;51.454;13.862;2023-07-09T06:07:08;23.20;80.80
18047;DHT22;9148;51.454;13.862;2023-07-09T06:09:35;23.40;79.70
18047;DHT22;9148;51.454;13.862;2023-07-09T06:12:02;23.70;78.70
18047;DHT22;9148;51.454;13.862;2023-07-09T06:14:29;23.90;78.50
18047;DHT22;9148;51.454;13.862;2023-07-09T06:16:56;24.00;77.00
18047;DHT22;9148;51.454;13.862;2023-07-09T06:19:21;24.10;76.60
18047;DHT22;9148;51.454;13.862;2023-07-09T06:21:47;24.30;76.30
18047;DHT22;9148;51.454;13.862;2023-07-09T06:24:13;24.50;76.00
18047;DHT22;9148;51.454;13.862;2023-07-09T06:26:38;24.80;75.60
18047;DHT22;9148;51.454;13.862;2023-07-09T06:29:05;25.10;74.90
18047;DHT22;9148;51.454;13.862;2023-07-09T06:31:31;25.30;73.90
18047;DHT22;9148;51.454;13.862;2023-07-09T06:33:57;25.60;73.30
18047;DHT22;9148;51.454;13.862;2023-07-09T06:36:22;25.90;72.40
18047;DHT22;9148;51.454;13.862;2023-07-09T06:38:48;26.10;71.40
18047;DHT22;9148;51.454;13.862;2023-07-09T06:41:16;26.40;70.50
18047;DHT22;9148;51.454;13.862;2023-07-09T06:43:42;26.60;69.50
18047;DHT22;9148;51.454;13.862;2023-07-09T06:46:11;26.80;68.60
18047;DHT22;9148;51.454;13.862;2023-07-09T06:48:38;27.10;67.30
18047;DHT22;9148;51.454;13.862;2023-07-09T06:51:03;27.30;66.80
18047;DHT22;9148;51.454;13.862;2023-07-09T06:53:29;27.60;66.10
18047;DHT22;9148;51.454;13.862;2023-07-09T06:55:56;27.80;65.00
18047;DHT22;9148;51.454;13.862;2023-07-09T06:58:25;28.10;62.90
18047;DHT22;9148;51.454;13.862;2023-07-09T07:00:54;28.30;61.30
18047;DHT22;9148;51.454;13.862;2023-07-09T07:03:21;28.50;60.30
18047;DHT22;9148;51.454;13.862;2023-07-09T07:05:49;28.70;59.80
18047;DHT22;9148;51.454;13.862;2023-07-09T07:08:17;29.00;59.30
18047;DHT22;9148;51.454;13.862;2023-07-09T07:10:58;29.20;58.80
18047;DHT22;9148;51.454;13.862;2023-07-09T07:13:29;29.60;58.50
18047;DHT22;9148;51.454;13.862;2023-07-09T07:16:07;29.80;57.60
18047;DHT22;9148;51.454;13.862;2023-07-09T07:18:34;30.10;57.00
18047;DHT22;9148;51.454;13.862;2023-07-09T07:21:01;30.40;56.20
18047;DHT22;9148;51.454;13.862;2023-07-09T07:23:27;30.70;55.50
18047;DHT22;9148;51.454;13.862;2023-07-09T07:25:53;31.00;55.30
18047;DHT22;9148;51.454;13.862;2023-07-09T07:28:20;31.20;53.90
18047;DHT22;9148;51.454;13.862;2023-07-09T07:30:46;31.50;52.00
18047;DHT22;9148;51.454;13.862;2023-07-09T07:33:14;31.70;51.60
18047;DHT22;9148;51.454;13.862;2023-07-09T07:35:41;31.90;51.10
18047;DHT22;9148;51.454;13.862;2023-07-09T07:38:06;32.10;50.50
18047;DHT22;9148;51.454;13.862;2023-07-09T07:40:32;32.30;50.00
18047;DHT22;9148;51.454;13.862;2023-07-09T07:42:58;32.40;49.00
18047;DHT22;9148;51.454;13.862;2023-07-09T07:45:23;32.60;48.40
18047;DHT22;9148;51.454;13.862;2023-07-09T07:47:49;32.70;48.30
18047;DHT22;9148;51.454;13.862;2023-07-09T07:50:17;32.90;48.30
18047;DHT22;9148;51.454;13.862;2023-07-09T07:52:43;33.10;47.80
18047;DHT22;9148;51.454;13.862;2023-07-09T07:55:09;33.20;47.40
18047;DHT22;9148;51.454;13.862;2023-07-09T07:57:35;33.50;47.00
18047;DHT22;9148;51.454;13.862;2023-07-09T08:00:01;33.60;46.70
18047;DHT22;9148;51.454;13.862;2023-07-09T08:02:28;33.80;46.30
18047;DHT22;9148;51.454;13.862;2023-07-09T08:04:54;34.00;45.70
18047;DHT22;9148;51.454;13.862;2023-07-09T08:07:20;34.20;45.10
18047;DHT22;9148;51.454;13.862;2023-07-09T08:09:46;34.40;44.60
18047;DHT22;9148;51.454;13.862;2023-07-09T08:12:13;34.60;43.70
18047;DHT22;9148;51.454;13.862;2023-07-09T08:14:41;34.80;42.60
18047;DHT22;9148;51.454;13.862;2023-07-09T08:17:08;34.90;41.20
18047;DHT22;9148;51.454;13.862;2023-07-09T08:19:48;35.00;39.90
18047;DHT22;9148;51.454;13.862;2023-07-09T08:22:16;35.10;40.30
18047;DHT22;9148;51.454;13.862;2023-07-09T08:24:42;35.20;39.70
18047;DHT22;9148;51.454;13.862;2023-07-09T08:27:09;35.30;39.20
18047;DHT22;9148;51.454;13.862;2023-07-09T08:29:35;35.40;38.40
18047;DHT22;9148;51.454;13.862;2023-07-09T08:32:01;35.50;38.30
18047;DHT22;9148;51.454;13.862;2023-07-09T08:34:27;35.60;37.00
18047;DHT22;9148;51.454;13.862;2023-07-09T08:36:56;35.60;36.70
18047;DHT22;9148;51.454;13.862;2023-07-09T08:39:21;35.70;36.40
18047;DHT22;9148;51.454;13.862;2023-07-09T08:41:57;35.80;36.30
18047;DHT22;9148;51.454;13.862;2023-07-09T08:50:24;36.00;34.10
18047;DHT22;9148;51.454;13.862;2023-07-09T08:53:31;35.90;32.60
18047;DHT22;9148;51.454;13.862;2023-07-09T08:56:02;35.90;31.90
18047;DHT22;9148;51.454;13.862;2023-07-09T08:58:29;35.90;32.30
18047;DHT22;9148;51.454;13.862;2023-07-09T09:01:02;35.90;32.90
18047;DHT22;9148;51.454;13.862;2023-07-09T09:03:41;36.00;32.70
18047;DHT22;9148;51.454;13.862;2023-07-09T09:06:36;36.00;32.10
18047;DHT22;9148;51.454;13.862;2023-07-09T09:09:12;36.10;32.40
18047;DHT22;9148;51.454;13.862;2023-07-09T09:14:36;36.20;31.30
18047;DHT22;9148;51.454;13.862;2023-07-09T09:17:18;36.30;31.90
18047;DHT22;9148;51.454;13.862;2023-07-09T09:22:24;36.30;31.60
18047;DHT22;9148;51.454;13.862;2023-07-09T09:27:29;36.50;30.70
18047;DHT22;9148;51.454;13.862;2023-07-09T09:29:55;36.60;30.30
18047;DHT22;9148;51.454;13.862;2023-07-09T09:32:27;36.60;30.00
18047;DHT22;9148;51.454;13.862;2023-07-09T09:34:55;36.70;30.30
18047;DHT22;9148;51.454;13.862;2023-07-09T09:37:29;36.80;30.30
18047;DHT22;9148;51.454;13.862;2023-07-09T09:39:58;36.90;30.00
18047;DHT22;9148;51.454;13.862;2023-07-09T09:42:25;36.90;30.20
18047;DHT22;9148;51.454;13.862;2023-07-09T09:44:53;37.00;30.00
18047;DHT22;9148;51.454;13.862;2023-07-09T09:47:20;37.10;29.60
18047;DHT22;9148;51.454;13.862;2023-07-09T09:49:46;37.10;29.50
18047;DHT22;9148;51.454;13.862;2023-07-09T09:52:14;37.20;29.70
18047;DHT22;9148;51.454;13.862;2023-07-09T09:54:54;37.30;29.90
18047;DHT22;9148;51.454;13.862;2023-07-09T09:57:24;37.50;29.70
18047;DHT22;9148;51.454;13.862;2023-07-09T09:59:50;37.50;28.80
18047;DHT22;9148;51.454;13.862;2023-07-09T10:02:18;37.40;28.80
18047;DHT22;9148;51.454;13.862;2023-07-09T10:04:46;37.50;29.00
18047;DHT22;9148;51.454;13.862;2023-07-09T10:07:23;37.60;29.10
18047;DHT22;9148;51.454;13.862;2023-07-09T10:09:54;37.70;29.00
18047;DHT22;9148;51.454;13.862;2023-07-09T10:12:36;37.90;28.70
18047;DHT22;9148;51.454;13.862;2023-07-09T10:16:07;38.00;28.50
18047;DHT22;9148;51.454;13.862;2023-07-09T10:21:27;38.40;28.50
18047;DHT22;9148;51.454;13.862;2023-07-09T10:26:59;38.70;27.50
18047;DHT22;9148;51.454;13.862;2023-07-09T10:33:05;39.20;27.90
18047;DHT22;9148;51.454;13.862;2023-07-09T10:39:11;39.70;26.90
18047;DHT22;9148;51.454;13.862;2023-07-09T10:41:40;39.80;26.90
18047;DHT22;9148;51.454;13.862;2023-07-09T10:44:12;40.00;27.00
18047;DHT22;9148;51.454;13.862;2023-07-09T10:46:45;40.10;26.90
18047;DHT22;9148;51.454;13.862;2023-07-09T10:49:17;40.30;27.00
18047;DHT22;9148;51.454;13.862;2023-07-09T10:51:49;40.50;27.00
18047;DHT22;9148;51.454;13.862;2023-07-09T10:57:27;41.00;26.30
18047;DHT22;9148;51.454;13.862;2023-07-09T11:00:18;41.00;25.90
18047;DHT22;9148;51.454;13.862;2023-07-09T11:02:46;41.10;25.80
18047;DHT22;9148;51.454;13.862;2023-07-09T11:05:24;41.10;25.50
18047;DHT22;9148;51.454;13.862;2023-07-09T11:08:04;41.20;25.80
18047;DHT22;9148;51.454;13.862;2023-07-09T11:10:36;41.40;25.70
18047;DHT22;9148;51.454;13.862;2023-07-09T11:13:11;41.60;25.80
18047;DHT22;9148;51.454;13.862;2023-07-09T11:15:43;41.80;25.70
18047;DHT22;9148;51.454;13.862;2023-07-09T11:18:17;42.00;25.40
18047;DHT22;9148;51.454;13.862;2023-07-09T11:20:55;42.10;24.90
18047;DHT22;9148;51.454;13.862;2023-07-09T11:23:25;42.00;24.30
18047;DHT22;9148;51.454;13.862;2023-07-09T11:26:03;41.90;24.80
18047;DHT22;9148;51.454;13.862;2023-07-09T11:28:40;42.00;25.00
18047;DHT22;9148;51.454;13.862;2023-07-09T11:31:17;42.00;25.10
18047;DHT22;9148;51.454;13.862;2023-07-09T11:34:01;42.10;24.60
18047;DHT22;9148;51.454;13.862;2023-07-09T11:36:33;42.20;24.70
18047;DHT22;9148;51.454;13.862;2023-07-09T11:38:59;42.30;24.10
18047;DHT22;9148;51.454;13.862;2023-07-09T11:41:41;42.20;23.50
18047;DHT22;9148;51.454;13.862;2023-07-09T11:44:20;41.90;23.90
18047;DHT22;9148;51.454;13.862;2023-07-09T11:46:59;41.80;24.10
18047;DHT22;9148;51.454;13.862;2023-07-09T11:49:34;41.80;24.40
18047;DHT22;9148;51.454;13.862;2023-07-09T11:52:08;41.80;24.70
18047;DHT22;9148;51.454;13.862;2023-07-09T11:54:36;42.10;24.70
18047;DHT22;9148;51.454;13.862;2023-07-09T11:57:03;42.20;24.70
18047;DHT22;9148;51.454;13.862;2023-07-09T11:59:38;42.30;24.50
18047;DHT22;9148;51.454;13.862;2023-07-09T12:02:04;42.60;24.40
18047;DHT22;9148;51.454;13.862;2023-07-09T12:04:34;42.80;24.10
18047;DHT22;9148;51.454;13.862;2023-07-09T12:07:01;42.80;23.80
18047;DHT22;9148;51.454;13.862;2023-07-09T12:09:33;42.90;24.00
18047;DHT22;9148;51.454;13.862;2023-07-09T12:12:04;43.00;23.50
18047;DHT22;9148;51.454;13.862;2023-07-09T12:14:30;43.10;23.70
18047;DHT22;9148;51.454;13.862;2023-07-09T12:16:56;43.10;23.80
18047;DHT22;9148;51.454;13.862;2023-07-09T12:19:30;43.30;23.90
18047;DHT22;9148;51.454;13.862;2023-07-09T12:21:58;43.50;23.60
18047;DHT22;9148;51.454;13.862;2023-07-09T12:24:26;43.70;23.50
18047;DHT22;9148;51.454;13.862;2023-07-09T12:26:58;43.80;22.90
18047;DHT22;9148;51.454;13.862;2023-07-09T12:29:29;43.80;23.00
18047;DHT22;9148;51.454;13.862;2023-07-09T12:31:57;43.80;22.70
18047;DHT22;9148;51.454;13.862;2023-07-09T12:34:25;43.90;22.60
18047;DHT22;9148;51.454;13.862;2023-07-09T12:36:52;44.00;22.80
18047;DHT22;9148;51.454;13.862;2023-07-09T12:39:27;44.10;22.80
18047;DHT22;9148;51.454;13.862;2023-07-09T12:41:56;44.20;22.60
18047;DHT22;9148;51.454;13.862;2023-07-09T12:44:24;44.30;22.60
18047;DHT22;9148;51.454;13.862;2023-07-09T12:46:52;44.40;22.40
18047;DHT22;9148;51.454;13.862;2023-07-09T12:49:30;44.40;22.50
18047;DHT22;9148;51.454;13.862;2023-07-09T12:52:03;44.50;22.40
18047;DHT22;9148;51.454;13.862;2023-07-09T12:54:37;44.40;22.40
18047;DHT22;9148;51.454;13.862;2023-07-09T12:57:13;44.40;22.60
18047;DHT22;9148;51.454;13.862;2023-07-09T12:59:42;44.50;22.30
18047;DHT22;9148;51.454;13.862;2023-07-09T13:04:45;44.60;22.00
18047;DHT22;9148;51.454;13.862;2023-07-09T13:07:32;44.50;21.80
18047;DHT22;9148;51.454;13.862;2023-07-09T13:10:07;44.50;21.80
18047;DHT22;9148;51.454;13.862;2023-07-09T13:12:48;44.50;22.10
18047;DHT22;9148;51.454;13.862;2023-07-09T13:15:38;44.50;21.80
18047;DHT22;9148;51.454;13.862;2023-07-09T13:18:11;44.50;21.70
18047;DHT22;9148;51.454;13.862;2023-07-09T13:20:42;44.50;21.70
18047;DHT22;9148;51.454;13.862;2023-07-09T13:23:19;44.50;21.60
18047;DHT22;9148;51.454;13.862;2023-07-09T13:25:46;44.40;21.60
18047;DHT22;9148;51.454;13.862;2023-07-09T13:28:16;44.40;21.80
18047;DHT22;9148;51.454;13.862;2023-07-09T13:30:48;44.40;21.70
18047;DHT22;9148;51.454;13.862;2023-07-09T13:33:16;44.30;21.70
18047;DHT22;9148;51.454;13.862;2023-07-09T13:35:43;44.40;21.80
18047;DHT22;9148;51.454;13.862;2023-07-09T13:38:17;44.40;21.60
18047;DHT22;9148;51.454;13.862;2023-07-09T13:40:46;44.30;21.50
18047;DHT22;9148;51.454;13.862;2023-07-09T13:43:35;44.20;21.60
18047;DHT22;9148;51.454;13.862;2023-07-09T13:46:03;44.20;21.80
18047;DHT22;9148;51.454;13.862;2023-07-09T13:48:33;44.10;21.80
18047;DHT22;9148;51.454;13.862;2023-07-09T13:50:59;44.10;21.80
18047;DHT22;9148;51.454;13.862;2023-07-09T13:53:30;43.90;21.70
18047;DHT22;9148;51.454;13.862;2023-07-09T13:55:56;43.60;21.50
18047;DHT22;9148;51.454;13.862;2023-07-09T13:58:25;43.40;21.40
18047;DHT22;9148;51.454;13.862;2023-07-09T14:00:57;43.20;21.40
18047;DHT22;9148;51.454;13.862;2023-07-09T14:03:27;43.00;21.80
18047;DHT22;9148;51.454;13.862;2023-07-09T14:05:54;43.00;21.90
18047;DHT22;9148;51.454;13.862;2023-07-09T14:08:20;42.90;21.80
18047;DHT22;9148;51.454;13.862;2023-07-09T14:10:47;42.70;21.90
18047;DHT22;9148;51.454;13.862;2023-07-09T14:13:19;42.60;22.30
18047;DHT22;9148;51.454;13.862;2023-07-09T14:15:46;42.50;22.30
18047;DHT22;9148;51.454;13.862;2023-07-09T14:18:16;42.40;22.40
18047;DHT22;9148;51.454;13.862;2023-07-09T14:20:43;42.50;22.60
18047;DHT22;9148;51.454;13.862;2023-07-09T14:23:13;42.40;22.70
18047;DHT22;9148;51.454;13.862;2023-07-09T14:25:42;42.40;22.80
18047;DHT22;9148;51.454;13.862;2023-07-09T14:28:14;42.30;22.70
18047;DHT22;9148;51.454;13.862;2023-07-09T14:30:46;42.10;22.80
18047;DHT22;9148;51.454;13.862;2023-07-09T14:33:16;42.00;22.80
18047;DHT22;9148;51.454;13.862;2023-07-09T14:35:43;42.00;22.70
18047;DHT22;9148;51.454;13.862;2023-07-09T14:38:23;41.80;22.80
18047;DHT22;9148;51.454;13.862;2023-07-09T14:40:52;41.70;22.90
18047;DHT22;9148;51.454;13.862;2023-07-09T14:43:18;41.70;23.10
18047;DHT22;9148;51.454;13.862;2023-07-09T14:45:44;41.60;23.10
18047;DHT22;9148;51.454;13.862;2023-07-09T14:50:37;41.40;23.40
18047;DHT22;9148;51.454;13.862;2023-07-09T14:53:04;41.30;23.30
18047;DHT22;9148;51.454;13.862;2023-07-09T14:55:35;41.10;23.40
18047;DHT22;9148;51.454;13.862;2023-07-09T14:58:01;40.90;23.50
18047;DHT22;9148;51.454;13.862;2023-07-09T15:00:30;40.80;23.60
18047;DHT22;9148;51.454;13.862;2023-07-09T15:02:56;40.70;23.60
18047;DHT22;9148;51.454;13.862;2023-07-09T15:05:24;40.60;24.10
18047;DHT22;9148;51.454;13.862;2023-07-09T15:07:52;40.60;23.70
18047;DHT22;9148;51.454;13.862;2023-07-09T15:10:22;40.50;23.70
18047;DHT22;9148;51.454;13.862;2023-07-09T15:12:50;40.30;23.60
18047;DHT22;9148;51.454;13.862;2023-07-09T15:15:23;40.20;23.70
18047;DHT22;9148;51.454;13.862;2023-07-09T15:17:51;40.10;23.60
18047;DHT22;9148;51.454;13.862;2023-07-09T15:20:21;40.00;23.80
18047;DHT22;9148;51.454;13.862;2023-07-09T15:22:49;39.90;23.90
18047;DHT22;9148;51.454;13.862;2023-07-09T15:25:24;39.80;24.00
18047;DHT22;9148;51.454;13.862;2023-07-09T15:27:51;39.60;24.10
18047;DHT22;9148;51.454;13.862;2023-07-09T15:30:20;39.40;24.10
18047;DHT22;9148;51.454;13.862;2023-07-09T15:32:48;39.30;24.30
18047;DHT22;9148;51.454;13.862;2023-07-09T15:35:17;39.20;24.30
18047;DHT22;9148;51.454;13.862;2023-07-09T15:37:44;39.00;24.50
18047;DHT22;9148;51.454;13.862;2023-07-09T15:40:18;38.90;24.70
18047;DHT22;9148;51.454;13.862;2023-07-09T15:42:47;38.80;24.80
18047;DHT22;9148;51.454;13.862;2023-07-09T15:45:17;38.60;24.70
18047;DHT22;9148;51.454;13.862;2023-07-09T15:47:45;38.50;24.40
18047;DHT22;9148;51.454;13.862;2023-07-09T15:50:17;38.30;24.40
18047;DHT22;9148;51.454;13.862;2023-07-09T15:52:45;38.00;24.60
18047;DHT22;9148;51.454;13.862;2023-07-09T15:55:30;37.90;24.90
18047;DHT22;9148;51.454;13.862;2023-07-09T15:57:55;37.80;25.10
18047;DHT22;9148;51.454;13.862;2023-07-09T16:00:25;37.60;25.10
18047;DHT22;9148;51.454;13.862;2023-07-09T16:02:53;37.70;25.20
18047;DHT22;9148;51.454;13.862;2023-07-09T16:05:25;37.60;25.10
18047;DHT22;9148;51.454;13.862;2023-07-09T16:07:54;37.70;25.40
18047;DHT22;9148;51.454;13.862;2023-07-09T16:10:22;37.70;25.60
18047;DHT22;9148;51.454;13.862;2023-07-09T16:12:50;37.60;25.80
18047;DHT22;9148;51.454;13.862;2023-07-09T16:15:18;37.60;26.00
18047;DHT22;9148;51.454;13.862;2023-07-09T16:17:46;37.60;26.10
18047;DHT22;9148;51.454;13.862;2023-07-09T16:20:15;37.40;26.20
18047;DHT22;9148;51.454;13.862;2023-07-09T16:22:50;37.40;26.30
18047;DHT22;9148;51.454;13.862;2023-07-09T16:25:21;37.50;26.60